• Join FlightAware (Why Join?)
  • Login
  • US Flag 
06:19PM EDT


 

Airport Tracker/Info


-or-


 

Live Flight TrackerFlight Track Log ✈ SWA1046 ✈ 08-May-2013 ✈ KMCO - KSTL

Flight Track Log - Related Links

Times and Time Zones

All times are in EDT time to prevent confusion due to time zone crossing. See the SWA1046 flight status page for this flight to view local times or setup timezone preferences in your user account.

Time Position Orientation Groundspeed Altitude Reporting Facility
EDT Latitude Longitude Course Direction KTS MPH feet Rate Location/Type
11:14AM 28.3667 -81.3167 196° South 207 238 2,600  Level Orlando TRACON
11:15AM 28.3333 -81.3833 240° Southwest 213 245 5,600 2,160 Climbing Orlando TRACON
11:17AM 28.3206 -81.5697 266° West 270 311 10,000 1,740 Climbing Jacksonville Center
11:18AM 28.3131 -81.6714 265° West 300 345 11,700 2,520 Climbing Jacksonville Center
11:19AM 28.3058 -81.7750 265° West 319 367 15,100 3,300 Climbing Jacksonville Center
11:20AM 28.3003 -81.8836 267° West 343 395 18,300 3,120 Climbing Jacksonville Center
11:21AM 28.2908 -81.9969 265° West 355 409 21,400 2,640 Climbing Jacksonville Center
11:22AM 28.3103 -82.1050 282° West 355 409 23,600 2,160 Climbing Jacksonville Center
11:23AM 28.3611 -82.2156 298° West 368 423 25,800 2,040 Climbing Jacksonville Center
11:24AM 28.4158 -82.3308 298° West 386 444 27,700 1,800 Climbing Jacksonville Center
11:25AM 28.4725 -82.4439 300° West 398 458 29,500 1,140 Climbing Jacksonville Center
11:26AM 28.5333 -82.5594 301° West 420 483 30,000 1,140 Climbing Jacksonville Center
11:27AM 28.6275 -82.6489 320° Northwest 427 491 31,800 1,860 Climbing Jacksonville Center
11:28AM 28.7236 -82.7292 324° Northwest 427 491 33,800 1,380 Climbing Jacksonville Center
11:29AM 28.8239 -82.8050 326° Northwest 432 497 34,600 1,200 Climbing Jacksonville Center
11:30AM 28.9200 -82.8831 325° Northwest 432 497 36,300 1,380 Climbing Jacksonville Center
11:31AM 29.0181 -82.9614 325° Northwest 432 497 37,400 840 Climbing Jacksonville Center
11:32AM 29.1183 -83.0400 326° Northwest 432 497 38,000 300 Climbing Jacksonville Center
11:33AM 29.2183 -83.1186 326° Northwest 432 497 38,000  Level Jacksonville Center
11:34AM 29.3142 -83.1997 324° Northwest 432 497 38,000  Level Jacksonville Center
11:35AM 29.4119 -83.2789 325° Northwest 432 497 38,000  Level Jacksonville Center
11:36AM 29.5203 -83.3650 325° Northwest 432 497 38,000  Level Jacksonville Center
11:37AM 29.6181 -83.4419 326° Northwest 432 497 38,000  Level Jacksonville Center
11:38AM 29.7158 -83.5239 324° Northwest 432 497 38,000  Level Jacksonville Center
11:39AM 29.8114 -83.6011 325° Northwest 432 497 38,000  Level Jacksonville Center
11:40AM 29.9092 -83.6786 326° Northwest 432 497 38,000  Level Jacksonville Center
11:41AM 30.0028 -83.7511 326° Northwest 432 497 38,000  Level Jacksonville Center
11:42AM 30.0939 -83.8289 324° Northwest 426 490 38,000  Level Jacksonville Center
11:43AM 30.1853 -83.9042 325° Northwest 416 479 38,000  Level Jacksonville Center
11:44AM 30.2786 -83.9797 325° Northwest 411 473 38,000  Level Jacksonville Center
11:45AM 30.3697 -84.0556 324° Northwest 406 467 38,000  Level Jacksonville Center
11:46AM 30.4608 -84.1289 325° Northwest 406 467 38,000  Level Jacksonville Center
11:47AM 30.5439 -84.1975 325° Northwest 406 467 38,000  Level Jacksonville Center
11:48AM 30.6389 -84.2783 324° Northwest 399 459 38,000  Level Jacksonville Center
11:49AM 30.7278 -84.3572 323° Northwest 404 465 38,000  Level Jacksonville Center
11:50AM 30.8208 -84.4311 326° Northwest 404 465 38,000  Level Jacksonville Center
11:51AM 30.9097 -84.5075 324° Northwest 404 465 38,000  Level Jacksonville Center
11:52AM 31.0008 -84.5819 325° Northwest 404 465 38,000  Level Jacksonville Center
11:54AM 31.1667 -84.7208 324° Northwest 408 470 38,000  Level Atlanta Center
11:55AM 31.2539 -84.7942 324° Northwest 402 463 38,000  Level Atlanta Center
11:56AM 31.3431 -84.8703 324° Northwest 402 463 38,000  Level Atlanta Center
11:57AM 31.4344 -84.9467 325° Northwest 402 463 38,000  Level Atlanta Center
11:58AM 31.5256 -85.0256 324° Northwest 402 463 38,000  Level Atlanta Center
11:59AM 31.6147 -85.1044 323° Northwest 409 471 38,100 660 Climbing Atlanta Center
12:00PM 31.7100 -85.1789 326° Northwest 409 471 39,400 900 Climbing Atlanta Center
12:01PM 31.8011 -85.2558 324° Northwest 404 465 40,000 300 Climbing Atlanta Center
12:02PM 31.8942 -85.3353 324° Northwest 404 465 40,000  Level Atlanta Center
12:03PM 31.9872 -85.4175 323° Northwest 404 465 40,000  Level Atlanta Center
12:04PM 32.0908 -85.5025 325° Northwest 409 471 40,000  Level Atlanta Center
12:05PM 32.1858 -85.5850 324° Northwest 409 471 40,000  Level Atlanta Center
12:06PM 32.2786 -85.6653 324° Northwest 409 471 40,000  Level Atlanta Center
12:07PM 32.3756 -85.7481 324° Northwest 415 478 40,000  Level Atlanta Center
12:08PM 32.4661 -85.8336 321° Northwest 420 483 40,000  Level Atlanta Center
12:09PM 32.5631 -85.9144 325° Northwest 420 483 40,000  Level Atlanta Center
12:10PM 32.6578 -85.9953 324° Northwest 420 483 40,000  Level Atlanta Center
12:11PM 32.7525 -86.0789 323° Northwest 425 489 40,000  Level Atlanta Center
12:12PM 32.8450 -86.1603 324° Northwest 430 495 40,000  Level Atlanta Center
12:13PM 32.9375 -86.2417 324° Northwest 430 495 40,000  Level Atlanta Center
12:14PM 33.0300 -86.3208 324° Northwest 424 488 40,000  Level Atlanta Center
12:15PM 33.1222 -86.4075 322° Northwest 424 488 40,000  Level Atlanta Center
12:16PM 33.2167 -86.4919 323° Northwest 429 494 40,000  Level Atlanta Center
12:17PM 33.3042 -86.6014 314° West 450 518 40,000  Level Atlanta Center
12:18PM 33.3908 -86.6464 337° Northwest 385 443 40,000  Level Atlanta Center
12:19PM 33.4853 -86.7314 323° Northwest 407 468 40,000  Level Atlanta Center
12:20PM 33.5792 -86.8164 323° Northwest 418 481 40,000  Level Atlanta Center
12:21PM 33.7336 -86.9478 325° Northwest 458 527 40,000  Level Memphis Center
12:22PM 33.8319 -87.0339 324° Northwest 434 499 40,000  Level Memphis Center
12:23PM 33.9297 -87.1103 327° Northwest 424 488 40,000  Level Memphis Center
12:25PM 34.0313 -87.1783 326° Northwest  Level FlightAware Approximate
12:25PM 34.1383 -87.2681 326° Northwest 424 488 40,000  Level Memphis Center
12:26PM 34.2364 -87.3447 327° Northwest 419 482 40,000  Level Memphis Center
12:27PM 34.3319 -87.4219 326° Northwest 419 482 40,000  Level Memphis Center
12:28PM 34.4342 -87.5039 327° Northwest 425 489 40,000  Level Memphis Center
12:29PM 34.5211 -87.5742 326° Northwest 425 489 40,000  Level Memphis Center
12:30PM 34.6189 -87.6517 327° Northwest 425 489 40,000  Level Memphis Center
12:31PM 34.7167 -87.7319 326° Northwest 429 494 40,000  Level Memphis Center
12:32PM 34.8164 -87.8097 327° Northwest 429 494 40,000  Level Memphis Center
12:33PM 34.9117 -87.8881 326° Northwest 423 487 40,000  Level Memphis Center
12:34PM 35.0092 -87.9664 327° Northwest 423 487 40,000  Level Memphis Center
12:35PM 35.1047 -88.0447 326° Northwest 423 487 40,000  Level Memphis Center
12:36PM 35.2083 -88.1333 325° Northwest 423 487 40,000  Level Memphis Center
12:37PM 35.3058 -88.2147 326° Northwest 428 493 40,000  Level Memphis Center
12:38PM 35.4031 -88.2911 327° Northwest 428 493 40,000  Level Memphis Center
12:39PM 35.4936 -88.3475 333° Northwest 419 482 40,000  Level Memphis Center
12:40PM 35.5928 -88.4167 330° Northwest 409 471 40,000  Level Memphis Center
12:41PM 35.6942 -88.4883 330° Northwest 409 471 40,000  Level Memphis Center
12:42PM 35.7972 -88.5553 332° Northwest 409 471 40,000  Level Memphis Center
12:43PM 35.8964 -88.6272 330° Northwest 409 471 40,000  Level Memphis Center
12:44PM 35.9953 -88.6969 330° Northwest 409 471 40,000  Level Memphis Center
12:45PM 36.0961 -88.7669 331° Northwest 409 471 40,000  Level Memphis Center
12:46PM 36.1950 -88.8344 331° Northwest 409 471 40,000  Level Memphis Center
12:47PM 36.2961 -88.9047 331° Northwest 409 471 40,000 -540 Level Memphis Center
12:48PM 36.3947 -88.9750 330° Northwest 409 471 39,000 -960 Descending Memphis Center
12:49PM 36.4956 -89.0456 331° Northwest 409 471 38,100 -1,200 Descending Memphis Center
12:50PM 36.5942 -89.1164 330° Northwest 409 471 36,600 -2,280 Descending Memphis Center
12:51PM 36.7033 -89.1975 329° Northwest 409 471 33,600 -2,340 Descending Memphis Center
12:52PM 36.7958 -89.2636 330° Northwest 402 463 32,000 -840 Descending Memphis Center
12:53PM 36.8881 -89.3297 330° Northwest 392 451 32,000 -540 Level Memphis Center
12:55PM 37.0356 -89.4347 330° Northwest 382 440 30,700 -1,380 Descending Kansas City Center
12:56PM 37.1286 -89.5000 331° Northwest 383 441 28,300 -2,280 Descending Kansas City Center
12:57PM 37.2203 -89.5669 330° Northwest 381 438 26,100 -1,140 Descending Kansas City Center
12:58PM 37.3153 -89.6233 335° Northwest 380 437 26,000 -60 Descending Kansas City Center
12:59PM 37.4353 -89.6858 338° Northwest 386 444 26,000 -660 Level Kansas City Center
01:00PM 37.5325 -89.7397 336° Northwest 383 441 24,700 -1,680 Descending Kansas City Center
01:01PM 37.6317 -89.7947 336° Northwest 378 435 22,600 -2,040 Descending Kansas City Center
01:02PM 37.7269 -89.8478 336° Northwest 376 433 20,500 -2,040 Descending Kansas City Center
01:03PM 37.8183 -89.8978 337° Northwest 363 418 18,500 -2,160 Descending Kansas City Center
01:04PM 37.9236 -89.9522 338° Northwest 359 413 16,100 -2,160 Descending Kansas City Center
01:05PM 38.0125 -90.0019 336° Northwest 350 403 14,100 -2,040 Descending Kansas City Center
01:07PM 38.1028 -90.0550 335° Northwest 339 390 12,000 -1,500 Descending Kansas City Center
01:08PM 38.1747 -90.1183 325° Northwest 321 369 11,000 -1,140 Descending Kansas City Center
01:09PM 38.2394 -90.1750 325° Northwest 293 337 9,700 -1,380 Descending Kansas City Center
01:10PM 38.3083 -90.2058 341° North 274 315 8,200 -960 Descending Kansas City Center
01:11PM 38.3842 -90.2031 North 274 315 7,800 -1,020 Descending Kansas City Center
01:12PM 38.4492 -90.1503 32° Northeast 277 319 6,100 -1,380 Descending Kansas City Center
01:13PM 38.5400 -90.1461 North 275 316 5,000 -780 Descending Kansas City Center
01:14PM 38.6119 -90.1450 North 269 310 4,600 -720 Descending Kansas City Center
01:15PM 38.6617 -90.1836 329° Northwest 241 277 3,600 -840 Descending Kansas City Center
01:16PM 38.6900 -90.2408 302° West 213 245 2,900 -960 Descending Kansas City Center
01:17PM 38.7136 -90.2894 302° West 186 214 1,700 -1,140 Descending Kansas City Center
01:18PM 38.7397 -90.3425 302° West 162 186 600 -1,080 Descending Kansas City Center